Time;durP1;ratioP1;P1;durP2;ratioP2;P2;SDS_P1;SDS_P2;PMS_P1;PMS_P2;Temp;Humidity;BMP_temperature;BMP_pressure;BME280_temperature;BME280_humidity;BME280_pressure;Samples;Min_cycle;Max_cycle;Signal;HPM_P1;HPM_P2
2023/04/20 00:00:47;;;;;;;6.40;4.20;;;;;;;;;;4970165;28;20744;-90
2023/04/20 00:03:19;;;;;;;5.87;4.67;;;;;;;;;;5002405;28;20232;-89
2023/04/20 00:05:48;;;;;;;5.77;4.37;;;;;;;;;;4976713;28;20221;-87
2023/04/20 00:08:14;;;;;;;7.30;4.70;;;;;;;;;;4948150;28;20234;-87
2023/04/20 00:10:42;;;;;;;5.53;4.33;;;;;;;;;;4994383;28;20284;-87
2023/04/20 00:13:08;;;;;;;7.13;4.50;;;;;;;;;;4982392;28;20217;-87
2023/04/20 00:15:35;;;;;;;5.57;4.33;;;;;;;;;;4977200;28;20221;-87
2023/04/20 00:18:01;;;;;;;4.67;4.17;;;;;;;;;;4981813;28;20294;-87
2023/04/20 00:20:27;;;;;;;6.50;4.27;;;;;;;;;;5008602;28;20276;-86
2023/04/20 00:22:56;;;;;;;5.53;4.50;;;;;;;;;;4985124;28;20232;-86
2023/04/20 00:25:21;;;;;;;6.13;4.70;;;;;;;;;;5004828;28;20221;-86
2023/04/20 00:27:49;;;;;;;6.13;4.17;;;;;;;;;;4999313;28;20212;-88
2023/04/20 00:30:15;;;;;;;7.17;4.30;;;;;;;;;;4984747;28;20209;-88
2023/04/20 00:32:40;;;;;;;8.37;4.53;;;;;;;;;;5000180;28;20217;-85
2023/04/20 00:35:06;;;;;;;6.47;4.37;;;;;;;;;;5015881;28;20220;-87
2023/04/20 00:37:34;;;;;;;6.73;4.50;;;;;;;;;;4961083;28;20232;-85
2023/04/20 00:40:03;;;;;;;6.03;4.30;;;;;;;;;;4995307;28;20220;-85
2023/04/20 00:42:32;;;;;;;5.90;3.97;;;;;;;;;;5000967;28;20317;-86
2023/04/20 00:44:57;;;;;;;6.93;4.17;;;;;;;;;;5016535;28;20216;-83
2023/04/20 00:47:25;;;;;;;5.63;3.70;;;;;;;;;;4955414;28;20596;-86
2023/04/20 00:49:53;;;;;;;4.30;3.73;;;;;;;;;;4949173;28;20233;-84
2023/04/20 00:52:20;;;;;;;6.33;3.80;;;;;;;;;;5002482;28;20224;-83
2023/04/20 00:54:47;;;;;;;5.23;4.03;;;;;;;;;;5003219;28;20595;-87
2023/04/20 00:57:18;;;;;;;7.63;4.20;;;;;;;;;;4986766;28;20220;-87
2023/04/20 00:59:46;;;;;;;6.53;3.73;;;;;;;;;;5005704;28;20228;-83
2023/04/20 01:02:12;;;;;;;8.80;3.90;;;;;;;;;;4985291;28;20213;-87
2023/04/20 01:04:40;;;;;;;7.93;4.17;;;;;;;;;;5000100;28;20229;-88
2023/04/20 01:07:06;;;;;;;8.33;4.20;;;;;;;;;;4987960;28;20217;-87
2023/04/20 01:09:32;;;;;;;4.80;3.57;;;;;;;;;;4964390;28;20296;-87
2023/04/20 01:12:02;;;;;;;6.17;3.83;;;;;;;;;;4977636;28;20228;-87
2023/04/20 01:14:30;;;;;;;6.63;3.93;;;;;;;;;;4992906;28;20224;-87
2023/04/20 01:16:55;;;;;;;7.70;3.93;;;;;;;;;;4986718;28;20269;-87
2023/04/20 01:19:21;;;;;;;4.90;3.70;;;;;;;;;;4982182;28;20224;-87
2023/04/20 01:21:47;;;;;;;6.20;3.80;;;;;;;;;;4983154;28;20224;-87
2023/04/20 01:24:18;;;;;;;6.13;3.87;;;;;;;;;;4981713;28;20223;-88
2023/04/20 01:26:43;;;;;;;5.90;4.00;;;;;;;;;;4953929;28;20229;-87
2023/04/20 01:29:12;;;;;;;7.03;4.20;;;;;;;;;;4998163;28;20228;-85
2023/04/20 01:31:39;;;;;;;6.37;4.37;;;;;;;;;;4984041;28;20225;-87
2023/04/20 01:34:09;;;;;;;7.63;4.20;;;;;;;;;;4984755;28;20223;-86
2023/04/20 01:36:35;;;;;;;7.17;3.97;;;;;;;;;;4974944;28;20227;-88
2023/04/20 01:39:03;;;;;;;7.13;4.27;;;;;;;;;;4983754;28;20570;-87
2023/04/20 01:41:28;;;;;;;7.23;4.87;;;;;;;;;;4989789;28;20228;-87
2023/04/20 01:43:55;;;;;;;6.77;4.70;;;;;;;;;;4982837;28;20231;-86
2023/04/20 01:46:21;;;;;;;7.50;4.53;;;;;;;;;;4982049;28;20228;-87
2023/04/20 01:48:48;;;;;;;5.47;4.27;;;;;;;;;;4956154;28;20250;-87
2023/04/20 01:51:14;;;;;;;7.13;4.20;;;;;;;;;;4961301;28;20278;-87
2023/04/20 01:53:39;;;;;;;6.20;4.70;;;;;;;;;;4965032;28;20685;-88
2023/04/20 01:56:06;;;;;;;6.60;4.10;;;;;;;;;;4952967;28;20232;-87
2023/04/20 01:58:31;;;;;;;7.43;4.37;;;;;;;;;;4979558;28;20226;-87
2023/04/20 02:00:59;;;;;;;7.77;4.67;;;;;;;;;;4965699;28;20211;-88
2023/04/20 02:03:25;;;;;;;7.23;4.53;;;;;;;;;;4977037;28;20216;-87
2023/04/20 02:05:55;;;;;;;6.67;4.33;;;;;;;;;;4972013;28;20228;-87
2023/04/20 02:08:21;;;;;;;7.13;4.30;;;;;;;;;;4959768;28;20213;-85
2023/04/20 02:10:46;;;;;;;8.53;4.30;;;;;;;;;;4975988;28;20598;-87
2023/04/20 02:13:15;;;;;;;6.27;4.80;;;;;;;;;;4974083;28;20213;-87
2023/04/20 02:15:40;;;;;;;6.73;4.63;;;;;;;;;;4994777;28;20229;-86
2023/04/20 02:18:06;;;;;;;8.90;5.17;;;;;;;;;;4997729;28;20275;-86
2023/04/20 02:20:34;;;;;;;6.50;4.77;;;;;;;;;;4977670;28;20235;-88
2023/04/20 02:23:00;;;;;;;9.67;4.90;;;;;;;;;;4963526;28;20237;-88
2023/04/20 02:25:26;;;;;;;9.17;4.77;;;;;;;;;;4971160;28;20227;-88
2023/04/20 02:27:52;;;;;;;6.53;4.80;;;;;;;;;;4982351;28;20800;-87
2023/04/20 02:30:18;;;;;;;7.17;4.93;;;;;;;;;;4980446;28;20233;-87
2023/04/20 02:32:43;;;;;;;8.90;5.00;;;;;;;;;;4981872;28;20212;-86
2023/04/20 02:35:12;;;;;;;8.77;5.10;;;;;;;;;;4964091;28;20307;-86
2023/04/20 02:37:37;;;;;;;8.40;5.20;;;;;;;;;;4964473;28;20247;-87
2023/04/20 02:40:04;;;;;;;9.00;5.07;;;;;;;;;;4999852;28;20229;-87
2023/04/20 02:42:30;;;;;;;8.80;5.73;;;;;;;;;;4953723;28;20252;-87
2023/04/20 02:45:00;;;;;;;9.93;5.70;;;;;;;;;;4983384;28;20212;-87
2023/04/20 02:47:25;;;;;;;8.73;5.10;;;;;;;;;;4987374;28;20752;-88
2023/04/20 02:49:54;;;;;;;9.40;5.47;;;;;;;;;;4984737;28;20221;-86
2023/04/20 02:52:20;;;;;;;7.77;5.20;;;;;;;;;;4982331;28;20213;-86
2023/04/20 02:54:46;;;;;;;7.80;5.10;;;;;;;;;;4966455;28;20275;-86
2023/04/20 02:57:14;;;;;;;5.63;5.03;;;;;;;;;;4949477;28;20225;-86
2023/04/20 02:59:44;;;;;;;7.33;4.93;;;;;;;;;;4980260;28;20284;-88
2023/04/20 03:02:15;;;;;;;6.33;4.90;;;;;;;;;;5004632;28;20275;-87
2023/04/20 03:04:43;;;;;;;9.70;5.27;;;;;;;;;;4972424;28;20307;-86
2023/04/20 03:07:17;;;;;;;6.23;4.73;;;;;;;;;;4968479;28;20805;-86
2023/04/20 03:09:42;;;;;;;6.90;5.67;;;;;;;;;;4999589;28;20217;-87
2023/04/20 03:12:10;;;;;;;8.50;5.60;;;;;;;;;;4998736;28;20208;-87
2023/04/20 03:14:59;;;;;;;7.00;5.57;;;;;;;;;;5003526;28;20225;-87
2023/04/20 03:17:39;;;;;;;7.13;5.37;;;;;;;;;;4971957;28;20311;-86
2023/04/20 03:20:06;;;;;;;6.90;5.90;;;;;;;;;;4982570;28;20592;-87
2023/04/20 03:22:31;;;;;;;9.70;5.77;;;;;;;;;;4998756;28;20287;-87
2023/04/20 03:24:59;;;;;;;7.27;5.40;;;;;;;;;;4998777;28;20244;-87
2023/04/20 03:27:41;;;;;;;7.73;6.30;;;;;;;;;;4985393;28;20918;-87
2023/04/20 03:30:11;;;;;;;7.30;6.03;;;;;;;;;;4998651;28;20224;-86
2023/04/20 03:32:37;;;;;;;11.10;8.13;;;;;;;;;;4979289;28;20225;-87
2023/04/20 03:35:07;;;;;;;8.47;7.57;;;;;;;;;;4977853;28;20647;-87
2023/04/20 03:37:35;;;;;;;8.90;7.50;;;;;;;;;;4967012;28;20214;-87
2023/04/20 03:40:05;;;;;;;7.03;5.70;;;;;;;;;;4965103;28;20221;-87
2023/04/20 03:42:40;;;;;;;8.30;6.40;;;;;;;;;;4974070;28;20221;-85
2023/04/20 03:45:06;;;;;;;7.87;5.90;;;;;;;;;;4979233;28;20284;-78
2023/04/20 03:47:34;;;;;;;8.33;5.60;;;;;;;;;;4972445;28;20331;-79
2023/04/20 03:50:03;;;;;;;9.20;6.53;;;;;;;;;;4984417;28;20324;-80
2023/04/20 03:52:28;;;;;;;10.77;6.80;;;;;;;;;;4970362;28;20413;-78
2023/04/20 03:54:55;;;;;;;7.60;6.40;;;;;;;;;;4951504;28;20300;-78
2023/04/20 03:57:20;;;;;;;9.20;6.10;;;;;;;;;;4988605;28;20224;-78
2023/04/20 03:59:46;;;;;;;7.13;5.87;;;;;;;;;;4970712;28;20258;-79
2023/04/20 04:02:16;;;;;;;8.23;6.20;;;;;;;;;;4971953;28;20220;-78
2023/04/20 04:04:44;;;;;;;7.53;6.10;;;;;;;;;;4942061;28;20228;-78
2023/04/20 04:07:10;;;;;;;8.07;6.27;;;;;;;;;;4986631;28;20237;-78
2023/04/20 04:09:38;;;;;;;9.83;6.40;;;;;;;;;;4957504;28;20246;-77
2023/04/20 04:12:08;;;;;;;9.00;6.57;;;;;;;;;;4987065;28;20392;-78
2023/04/20 04:14:34;;;;;;;8.50;6.37;;;;;;;;;;5001094;28;20233;-79
2023/04/20 04:17:06;;;;;;;10.07;6.87;;;;;;;;;;4975910;28;20236;-80
2023/04/20 04:19:34;;;;;;;9.47;6.67;;;;;;;;;;4974528;28;20253;-78
2023/04/20 04:22:01;;;;;;;9.87;7.00;;;;;;;;;;4958947;28;20753;-79
2023/04/20 04:24:32;;;;;;;10.30;7.17;;;;;;;;;;5003003;28;20370;-79
2023/04/20 04:27:07;;;;;;;10.30;6.80;;;;;;;;;;4962437;28;20278;-81
2023/04/20 04:29:38;;;;;;;12.70;7.07;;;;;;;;;;4979362;28;20221;-78
2023/04/20 04:32:07;;;;;;;12.40;7.60;;;;;;;;;;4960970;28;20232;-80
2023/04/20 04:34:33;;;;;;;8.97;6.97;;;;;;;;;;5005494;28;20220;-79
2023/04/20 04:37:00;;;;;;;10.87;6.67;;;;;;;;;;4999993;28;20224;-79
2023/04/20 04:39:38;;;;;;;11.00;7.33;;;;;;;;;;5003968;28;20221;-78
2023/04/20 04:42:14;;;;;;;11.17;7.00;;;;;;;;;;4987755;28;20236;-79
2023/04/20 04:44:42;;;;;;;11.90;7.73;;;;;;;;;;5016158;28;20237;-78
2023/04/20 04:47:13;;;;;;;12.10;7.80;;;;;;;;;;4974294;28;20635;-78
2023/04/20 04:49:41;;;;;;;11.97;7.37;;;;;;;;;;4982134;28;20220;-79
2023/04/20 04:52:07;;;;;;;9.50;6.67;;;;;;;;;;4995338;28;20225;-79
2023/04/20 04:54:36;;;;;;;9.50;7.00;;;;;;;;;;4949335;28;20220;-79
2023/04/20 04:57:02;;;;;;;13.20;7.60;;;;;;;;;;4982367;28;20220;-78
2023/04/20 04:59:28;;;;;;;11.57;7.30;;;;;;;;;;4998923;28;20247;-80
2023/04/20 05:01:55;;;;;;;11.23;7.70;;;;;;;;;;4997390;28;20247;-79
2023/04/20 05:04:28;;;;;;;9.13;7.47;;;;;;;;;;4981017;28;20239;-80
2023/04/20 05:06:54;;;;;;;10.83;7.43;;;;;;;;;;4960597;28;20225;-79
2023/04/20 05:09:20;;;;;;;10.10;7.20;;;;;;;;;;4976949;28;20298;-79
2023/04/20 05:11:45;;;;;;;9.43;7.37;;;;;;;;;;5011567;28;20221;-77
2023/04/20 05:14:11;;;;;;;11.47;8.03;;;;;;;;;;4993353;28;20300;-80
2023/04/20 05:16:37;;;;;;;12.20;8.30;;;;;;;;;;4994966;28;20231;-80
2023/04/20 05:19:04;;;;;;;10.87;8.13;;;;;;;;;;4977142;28;20267;-80
2023/04/20 05:21:31;;;;;;;9.33;7.27;;;;;;;;;;4976370;28;20336;-79
2023/04/20 05:23:57;;;;;;;12.03;8.10;;;;;;;;;;4976921;28;20225;-81
2023/04/20 05:26:22;;;;;;;11.77;7.90;;;;;;;;;;4991595;28;20217;-80
2023/04/20 05:28:47;;;;;;;12.97;8.07;;;;;;;;;;4991276;28;20236;-80
2023/04/20 05:31:15;;;;;;;13.00;8.30;;;;;;;;;;4973685;28;20727;-79
2023/04/20 05:33:41;;;;;;;10.93;7.80;;;;;;;;;;4975501;28;20221;-80
2023/04/20 05:36:09;;;;;;;9.70;7.63;;;;;;;;;;4975393;28;20252;-80
2023/04/20 05:38:35;;;;;;;13.53;8.03;;;;;;;;;;4960210;28;20235;-80
2023/04/20 05:41:01;;;;;;;15.37;8.63;;;;;;;;;;4988918;28;20228;-79
2023/04/20 05:43:26;;;;;;;15.13;8.10;;;;;;;;;;4958294;28;20259;-80
2023/04/20 05:45:52;;;;;;;11.07;8.80;;;;;;;;;;4976823;28;20236;-80
2023/04/20 05:48:17;;;;;;;13.30;8.60;;;;;;;;;;4965678;28;20254;-78
2023/04/20 05:50:43;;;;;;;13.30;8.20;;;;;;;;;;4973702;28;20221;-79
2023/04/20 05:53:08;;;;;;;13.13;8.40;;;;;;;;;;4972957;28;20213;-79
2023/04/20 05:55:34;;;;;;;12.13;8.70;;;;;;;;;;4970156;28;20225;-79
2023/04/20 05:57:59;;;;;;;11.20;8.33;;;;;;;;;;5005355;28;20565;-77
2023/04/20 06:00:25;;;;;;;10.90;8.33;;;;;;;;;;4958524;28;20233;-80
2023/04/20 06:02:50;;;;;;;16.13;9.17;;;;;;;;;;4990860;28;20212;-78
2023/04/20 06:05:16;;;;;;;12.83;8.60;;;;;;;;;;4975384;28;20231;-80
2023/04/20 06:07:41;;;;;;;12.17;8.37;;;;;;;;;;4992351;28;20617;-80
2023/04/20 06:10:08;;;;;;;13.57;9.20;;;;;;;;;;4981104;28;20231;-80
2023/04/20 06:12:33;;;;;;;15.37;8.93;;;;;;;;;;4943722;28;20228;-80
2023/04/20 06:14:59;;;;;;;15.10;9.50;;;;;;;;;;4992950;28;20232;-80
2023/04/20 06:17:24;;;;;;;16.97;9.50;;;;;;;;;;4976778;28;20224;-80
2023/04/20 06:19:50;;;;;;;12.70;9.23;;;;;;;;;;4989051;28;20221;-78
2023/04/20 06:22:20;;;;;;;14.27;9.50;;;;;;;;;;5005062;28;20217;-79
2023/04/20 06:24:45;;;;;;;13.20;9.47;;;;;;;;;;4976088;28;20223;-79
2023/04/20 06:27:11;;;;;;;15.77;9.33;;;;;;;;;;4975602;28;20224;-79
2023/04/20 06:29:41;;;;;;;12.33;9.50;;;;;;;;;;4993835;28;20217;-80
2023/04/20 06:32:07;;;;;;;12.57;8.53;;;;;;;;;;4975225;28;20231;-80
2023/04/20 06:34:32;;;;;;;13.10;9.17;;;;;;;;;;4975581;28;20682;-79
2023/04/20 06:36:58;;;;;;;14.20;9.70;;;;;;;;;;4959493;28;20681;-80
2023/04/20 06:39:26;;;;;;;13.73;9.67;;;;;;;;;;5006070;28;20221;-80
2023/04/20 06:41:51;;;;;;;14.47;10.17;;;;;;;;;;4975800;28;20224;-80
2023/04/20 06:44:20;;;;;;;13.23;9.70;;;;;;;;;;4960644;28;20228;-80
2023/04/20 06:46:48;;;;;;;15.97;10.77;;;;;;;;;;4961034;28;20266;-80
2023/04/20 06:49:13;;;;;;;17.47;10.40;;;;;;;;;;4976140;28;20278;-80
2023/04/20 06:51:44;;;;;;;17.73;10.27;;;;;;;;;;4977343;28;20228;-80
2023/04/20 06:54:12;;;;;;;17.40;11.50;;;;;;;;;;4966582;28;20760;-81
2023/04/20 06:56:38;;;;;;;16.07;10.13;;;;;;;;;;4976573;28;20232;-81
2023/04/20 06:59:03;;;;;;;15.77;10.57;;;;;;;;;;4974647;28;20216;-80
2023/04/20 07:01:29;;;;;;;16.10;10.23;;;;;;;;;;4975646;28;20251;-78
2023/04/20 07:03:57;;;;;;;17.57;10.53;;;;;;;;;;5005906;28;20223;-80
2023/04/20 07:06:24;;;;;;;16.40;10.17;;;;;;;;;;4966040;28;20311;-81
2023/04/20 07:08:49;;;;;;;13.73;10.27;;;;;;;;;;4989826;28;20224;-80
2023/04/20 07:11:15;;;;;;;14.03;10.33;;;;;;;;;;5007682;28;20237;-79
2023/04/20 07:13:40;;;;;;;13.97;9.93;;;;;;;;;;4996565;28;20212;-79
2023/04/20 07:16:06;;;;;;;15.50;10.17;;;;;;;;;;4959360;28;20225;-80
2023/04/20 07:18:35;;;;;;;16.40;10.33;;;;;;;;;;4977564;28;21653;-82
2023/04/20 07:21:04;;;;;;;16.17;10.93;;;;;;;;;;4979177;28;20260;-78
2023/04/20 07:23:32;;;;;;;15.13;9.97;;;;;;;;;;5008321;28;20221;-79
2023/04/20 07:26:00;;;;;;;16.40;10.03;;;;;;;;;;5015269;28;20249;-76
2023/04/20 07:28:28;;;;;;;13.83;9.57;;;;;;;;;;4978919;28;20221;-78
2023/04/20 07:30:54;;;;;;;14.07;9.93;;;;;;;;;;4989428;28;20224;-80
2023/04/20 07:33:23;;;;;;;13.07;9.60;;;;;;;;;;5008240;28;20209;-80
2023/04/20 07:35:48;;;;;;;13.63;10.00;;;;;;;;;;5007627;28;20209;-81
2023/04/20 07:38:19;;;;;;;14.67;10.10;;;;;;;;;;4973514;28;20227;-80
2023/04/20 07:40:45;;;;;;;12.43;9.97;;;;;;;;;;5019432;28;20263;-80
2023/04/20 07:43:17;;;;;;;13.13;9.77;;;;;;;;;;5004719;28;20300;-80
2023/04/20 07:45:43;;;;;;;12.93;9.40;;;;;;;;;;5005300;28;20229;-80
2023/04/20 07:48:11;;;;;;;12.73;9.20;;;;;;;;;;4990521;28;20329;-79
2023/04/20 07:50:37;;;;;;;11.47;9.27;;;;;;;;;;5014684;28;20224;-81
2023/04/20 07:53:06;;;;;;;13.53;8.93;;;;;;;;;;4997163;28;20255;-78
2023/04/20 07:55:34;;;;;;;15.13;9.50;;;;;;;;;;4977920;28;20217;-80
2023/04/20 07:58:00;;;;;;;12.40;9.73;;;;;;;;;;4989322;28;20225;-81
2023/04/20 08:00:26;;;;;;;13.83;9.53;;;;;;;;;;5008477;28;22499;-78
2023/04/20 08:02:54;;;;;;;11.87;9.10;;;;;;;;;;4995788;28;20244;-76
2023/04/20 08:05:21;;;;;;;11.63;8.93;;;;;;;;;;5012872;28;20220;-78
2023/04/20 08:07:50;;;;;;;9.77;8.73;;;;;;;;;;5009265;28;20220;-77
2023/04/20 08:10:15;;;;;;;12.10;8.37;;;;;;;;;;4990778;28;20241;-78
2023/04/20 08:12:42;;;;;;;9.90;7.77;;;;;;;;;;4978455;28;20217;-79
2023/04/20 08:15:11;;;;;;;11.80;7.73;;;;;;;;;;4990036;28;20228;-80
2023/04/20 08:17:37;;;;;;;9.37;7.30;;;;;;;;;;4982995;28;20217;-80
2023/04/20 08:20:09;;;;;;;11.63;7.77;;;;;;;;;;4989992;28;20793;-78
2023/04/20 08:22:37;;;;;;;8.37;7.03;;;;;;;;;;5015001;28;20228;-78
2023/04/20 08:25:07;;;;;;;7.70;6.80;;;;;;;;;;5001058;28;20950;-81
2023/04/20 08:27:42;;;;;;;11.00;7.77;;;;;;;;;;5011880;28;20236;-81
2023/04/20 08:30:08;;;;;;;7.80;7.00;;;;;;;;;;5021861;28;21306;-80
2023/04/20 08:32:34;;;;;;;10.17;7.67;;;;;;;;;;4985216;28;20244;-79
2023/04/20 08:35:00;;;;;;;10.70;7.33;;;;;;;;;;4987573;28;20229;-79
2023/04/20 08:37:33;;;;;;;11.50;7.47;;;;;;;;;;5000149;28;20216;-78
2023/04/20 08:40:00;;;;;;;9.43;7.27;;;;;;;;;;4983388;28;20723;-79
2023/04/20 08:42:29;;;;;;;8.67;7.37;;;;;;;;;;5012120;28;20230;-80
2023/04/20 08:44:59;;;;;;;8.20;7.37;;;;;;;;;;4962928;28;20216;-79
2023/04/20 08:47:25;;;;;;;9.57;7.03;;;;;;;;;;4977862;28;20259;-78
2023/04/20 08:49:52;;;;;;;10.63;7.63;;;;;;;;;;4994085;28;20217;-79
2023/04/20 08:52:17;;;;;;;8.77;7.30;;;;;;;;;;4977261;28;20930;-78
2023/04/20 08:54:45;;;;;;;9.07;7.80;;;;;;;;;;4976710;28;20220;-79
2023/04/20 08:57:11;;;;;;;10.33;7.43;;;;;;;;;;4992251;28;20224;-80
2023/04/20 08:59:36;;;;;;;9.63;7.30;;;;;;;;;;4996812;28;20220;-80
2023/04/20 09:02:12;;;;;;;7.73;7.00;;;;;;;;;;4962379;28;20224;-79
2023/04/20 09:04:38;;;;;;;11.67;7.67;;;;;;;;;;4978057;28;20243;-78
2023/04/20 09:07:03;;;;;;;11.20;7.67;;;;;;;;;;4978870;28;20221;-80
2023/04/20 09:09:31;;;;;;;9.60;7.67;;;;;;;;;;4978358;28;20231;-80
2023/04/20 09:12:05;;;;;;;10.67;7.40;;;;;;;;;;4992945;28;20296;-80
2023/04/20 09:14:43;;;;;;;9.03;7.57;;;;;;;;;;4992068;28;20574;-82
2023/04/20 09:17:13;;;;;;;10.37;8.20;;;;;;;;;;4995005;28;20407;-80
2023/04/20 09:19:42;;;;;;;8.30;7.50;;;;;;;;;;4980406;28;20303;-79
2023/04/20 09:22:10;;;;;;;9.10;7.20;;;;;;;;;;4992823;28;20220;-80
2023/04/20 09:24:38;;;;;;;8.60;7.70;;;;;;;;;;4963165;28;20278;-80
2023/04/20 09:27:17;;;;;;;10.63;7.70;;;;;;;;;;4977591;28;20228;-79
2023/04/20 09:29:56;;;;;;;7.67;6.97;;;;;;;;;;5012277;28;20820;-80
2023/04/20 09:32:22;;;;;;;9.47;7.60;;;;;;;;;;4976483;28;20228;-80
2023/04/20 09:34:50;;;;;;;10.00;7.70;;;;;;;;;;4964126;28;20228;-81
2023/04/20 09:37:16;;;;;;;8.40;7.50;;;;;;;;;;4977725;28;20244;-81
2023/04/20 09:39:44;;;;;;;11.23;8.20;;;;;;;;;;5005368;28;20228;-79
2023/04/20 09:42:10;;;;;;;10.63;7.53;;;;;;;;;;4960986;28;21593;-80
2023/04/20 09:44:41;;;;;;;9.57;7.23;;;;;;;;;;4976943;28;20241;-80
2023/04/20 09:47:09;;;;;;;8.70;7.80;;;;;;;;;;4977305;28;20587;-79
2023/04/20 09:49:45;;;;;;;9.47;7.40;;;;;;;;;;5011627;28;20243;-80
2023/04/20 09:52:11;;;;;;;9.57;6.97;;;;;;;;;;4988733;28;20225;-80
2023/04/20 09:54:39;;;;;;;11.17;8.00;;;;;;;;;;4978925;28;20220;-80
2023/04/20 09:57:05;;;;;;;7.13;6.40;;;;;;;;;;4992206;28;20256;-81
2023/04/20 09:59:31;;;;;;;10.23;7.00;;;;;;;;;;4978619;28;20223;-80
2023/04/20 10:01:57;;;;;;;9.77;7.13;;;;;;;;;;4977435;28;20243;-80
2023/04/20 10:04:27;;;;;;;8.73;7.07;;;;;;;;;;4962419;28;20232;-80
2023/04/20 10:07:02;;;;;;;8.53;7.13;;;;;;;;;;4974631;28;20232;-81
2023/04/20 10:09:29;;;;;;;8.83;6.97;;;;;;;;;;5008316;28;20270;-82
2023/04/20 10:12:05;;;;;;;8.50;7.10;;;;;;;;;;4992826;28;20228;-76
2023/04/20 10:14:30;;;;;;;7.77;6.40;;;;;;;;;;4979988;28;20244;-78
2023/04/20 10:17:00;;;;;;;8.07;6.70;;;;;;;;;;4981785;28;20217;-77
2023/04/20 10:19:42;;;;;;;8.43;7.60;;;;;;;;;;5010411;28;20315;-77
2023/04/20 10:22:09;;;;;;;8.33;7.03;;;;;;;;;;4982196;28;20294;-77
2023/04/20 10:24:37;;;;;;;7.50;6.70;;;;;;;;;;4954477;28;20228;-79
2023/04/20 10:27:18;;;;;;;7.50;6.80;;;;;;;;;;5004752;28;20221;-80
2023/04/20 10:29:43;;;;;;;9.00;7.03;;;;;;;;;;4989182;28;20294;-80
2023/04/20 10:32:09;;;;;;;8.47;6.90;;;;;;;;;;4973461;28;20224;-79
2023/04/20 10:34:37;;;;;;;7.87;7.03;;;;;;;;;;4969470;28;20223;-80
2023/04/20 10:37:09;;;;;;;9.17;6.87;;;;;;;;;;4957892;28;20290;-78
2023/04/20 10:39:42;;;;;;;8.03;6.90;;;;;;;;;;4990403;28;20224;-81
2023/04/20 10:42:08;;;;;;;9.00;6.90;;;;;;;;;;4989976;28;20248;-80
2023/04/20 10:44:34;;;;;;;8.93;6.90;;;;;;;;;;4973261;28;20224;-80
2023/04/20 10:46:59;;;;;;;7.20;6.50;;;;;;;;;;5005767;28;20255;-77
2023/04/20 10:49:34;;;;;;;7.97;7.07;;;;;;;;;;4976722;28;20219;-77
2023/04/20 10:52:02;;;;;;;7.67;6.87;;;;;;;;;;4970832;28;20232;-78
2023/04/20 10:54:38;;;;;;;7.63;6.93;;;;;;;;;;4988216;28;20221;-80
2023/04/20 10:57:04;;;;;;;8.43;6.90;;;;;;;;;;4960143;28;20224;-78
2023/04/20 10:59:29;;;;;;;7.53;6.83;;;;;;;;;;5017050;28;20222;-80
2023/04/20 11:02:06;;;;;;;6.87;6.17;;;;;;;;;;4995315;28;20218;-79
2023/04/20 11:04:36;;;;;;;6.70;6.00;;;;;;;;;;4980043;28;20229;-80
2023/04/20 11:07:14;;;;;;;8.00;6.60;;;;;;;;;;4989311;28;20221;-79
2023/04/20 11:10:03;;;;;;;8.20;6.70;;;;;;;;;;4996234;28;20307;-77
2023/04/20 11:12:37;;;;;;;6.97;6.27;;;;;;;;;;5002237;28;21066;-79
2023/04/20 11:15:15;;;;;;;7.77;6.70;;;;;;;;;;4993993;28;20287;-77
2023/04/20 11:17:49;;;;;;;7.47;6.50;;;;;;;;;;5009408;28;20225;-78
2023/04/20 11:20:17;;;;;;;6.57;5.93;;;;;;;;;;5021693;28;20216;-75
2023/04/20 11:23:14;;;;;;;7.57;6.72;;;;;;;;;;5003218;28;20213;-79
2023/04/20 11:25:57;;;;;;;7.00;6.00;;;;;;;;;;4992641;28;20232;-79
2023/04/20 11:28:29;;;;;;;6.90;6.20;;;;;;;;;;4988475;28;20216;-81
2023/04/20 11:30:59;;;;;;;6.97;6.17;;;;;;;;;;5007185;28;20236;-78
2023/04/20 11:33:29;;;;;;;6.90;6.20;;;;;;;;;;4986638;28;20605;-79
2023/04/20 11:35:58;;;;;;;7.00;5.80;;;;;;;;;;5000288;28;20290;-80
2023/04/20 11:38:30;;;;;;;6.50;5.90;;;;;;;;;;4956754;28;20225;-80
2023/04/20 11:41:03;;;;;;;8.45;5.55;;;;;;;;;;4987984;28;20228;-80
2023/04/20 11:43:31;;;;;;;5.55;5.00;;;;;;;;;;5018396;28;20263;-78
2023/04/20 11:46:06;;;;;;;5.90;5.40;;;;;;;;;;5004639;28;20235;-78
2023/04/20 11:48:33;;;;;;;7.30;5.45;;;;;;;;;;5001312;28;20239;-78
2023/04/20 11:51:02;;;;;;;7.78;5.80;;;;;;;;;;4985817;28;20220;-80
2023/04/20 11:53:33;;;;;;;6.07;5.47;;;;;;;;;;4969164;28;20299;-79
2023/04/20 11:56:04;;;;;;;8.48;5.70;;;;;;;;;;4963837;28;20244;-79
2023/04/20 11:58:35;;;;;;;5.78;5.28;;;;;;;;;;4987100;28;20220;-79
2023/04/20 12:01:06;;;;;;;6.00;5.40;;;;;;;;;;4982573;28;21512;-79
2023/04/20 12:03:37;;;;;;;5.90;5.40;;;;;;;;;;4994931;28;20228;-79
2023/04/20 12:06:05;;;;;;;6.18;5.32;;;;;;;;;;4995852;28;20217;-78
2023/04/20 12:08:33;;;;;;;6.07;5.53;;;;;;;;;;4980936;28;20228;-81
2023/04/20 12:11:01;;;;;;;6.28;5.70;;;;;;;;;;4995366;28;21122;-78
2023/04/20 12:13:27;;;;;;;6.53;5.47;;;;;;;;;;4947727;28;20213;-79
2023/04/20 12:15:52;;;;;;;6.20;5.60;;;;;;;;;;4996529;28;20227;-79
2023/04/20 12:18:19;;;;;;;7.57;6.10;;;;;;;;;;4979801;28;20217;-78
2023/04/20 12:20:48;;;;;;;6.83;6.20;;;;;;;;;;4995946;28;20228;-79
2023/04/20 12:23:19;;;;;;;7.33;6.63;;;;;;;;;;4984047;28;20248;-79
2023/04/20 12:25:48;;;;;;;7.83;7.03;;;;;;;;;;4970123;28;20224;-81
2023/04/20 12:28:13;;;;;;;7.20;6.07;;;;;;;;;;4979415;28;20223;-78
2023/04/20 12:30:39;;;;;;;7.33;6.63;;;;;;;;;;4969680;28;20228;-80
2023/04/20 12:33:06;;;;;;;7.80;6.60;;;;;;;;;;4980670;28;20213;-80
2023/04/20 12:35:32;;;;;;;7.43;6.57;;;;;;;;;;4996745;28;20225;-80
2023/04/20 12:37:57;;;;;;;6.77;6.17;;;;;;;;;;5002446;28;20255;-79
2023/04/20 12:40:23;;;;;;;7.77;6.33;;;;;;;;;;5000296;28;20231;-79
2023/04/20 12:42:49;;;;;;;7.33;6.37;;;;;;;;;;4985516;28;20628;-80
2023/04/20 12:45:15;;;;;;;6.73;5.87;;;;;;;;;;5019817;28;20220;-80
2023/04/20 12:47:43;;;;;;;6.83;5.93;;;;;;;;;;4993406;28;20221;-79
2023/04/20 12:50:16;;;;;;;7.80;6.10;;;;;;;;;;4971490;28;20284;-79
2023/04/20 12:52:47;;;;;;;6.40;5.80;;;;;;;;;;4990077;28;20225;-80
2023/04/20 12:55:13;;;;;;;6.20;5.60;;;;;;;;;;5003767;28;20217;-81
2023/04/20 12:57:39;;;;;;;7.13;6.47;;;;;;;;;;5009824;28;20224;-79
2023/04/20 13:00:05;;;;;;;6.50;5.90;;;;;;;;;;4987094;28;20283;-78
2023/04/20 13:02:32;;;;;;;6.17;5.57;;;;;;;;;;5002781;28;20304;-79
2023/04/20 13:05:03;;;;;;;6.43;5.83;;;;;;;;;;5007775;28;20705;-82
2023/04/20 13:07:29;;;;;;;5.77;5.27;;;;;;;;;;4957361;28;20255;-79
2023/04/20 13:09:55;;;;;;;5.83;5.33;;;;;;;;;;5007725;28;20276;-80
2023/04/20 13:12:28;;;;;;;6.33;5.73;;;;;;;;;;4993849;28;20288;-82
2023/04/20 13:14:57;;;;;;;6.07;5.47;;;;;;;;;;5022413;28;20290;-81
2023/04/20 13:17:28;;;;;;;5.80;5.30;;;;;;;;;;4987764;28;20765;-78
2023/04/20 13:19:56;;;;;;;7.30;5.70;;;;;;;;;;4983975;28;20255;-79
2023/04/20 13:22:24;;;;;;;5.83;5.33;;;;;;;;;;4968515;28;20239;-79
2023/04/20 13:24:49;;;;;;;6.27;5.60;;;;;;;;;;4996758;28;20228;-79
2023/04/20 13:27:15;;;;;;;6.03;5.43;;;;;;;;;;4998081;28;20324;-80
2023/04/20 13:29:41;;;;;;;5.80;5.10;;;;;;;;;;5010864;28;20235;-81
2023/04/20 13:32:10;;;;;;;6.80;5.50;;;;;;;;;;4996356;28;20245;-79
2023/04/20 13:34:36;;;;;;;6.03;5.37;;;;;;;;;;4981999;28;20213;-81
2023/04/20 13:37:02;;;;;;;6.47;5.70;;;;;;;;;;4999324;28;20221;-82
2023/04/20 13:39:29;;;;;;;6.63;6.03;;;;;;;;;;4997435;28;20228;-81
2023/04/20 13:41:54;;;;;;;6.70;6.00;;;;;;;;;;4978617;28;20228;-80
2023/04/20 13:44:20;;;;;;;6.37;5.83;;;;;;;;;;4996999;28;20239;-80
2023/04/20 13:46:46;;;;;;;6.33;5.73;;;;;;;;;;4998003;28;20228;-79
2023/04/20 13:49:12;;;;;;;7.23;6.53;;;;;;;;;;4980292;28;20217;-79
2023/04/20 13:51:38;;;;;;;7.10;6.40;;;;;;;;;;4998182;28;20804;-78
2023/04/20 13:54:04;;;;;;;7.47;6.80;;;;;;;;;;4981184;28;20221;-80
2023/04/20 13:56:32;;;;;;;7.47;6.70;;;;;;;;;;4994874;28;20216;-79
2023/04/20 13:58:58;;;;;;;7.43;6.73;;;;;;;;;;4976104;28;20233;-79
2023/04/20 14:01:24;;;;;;;7.40;6.70;;;;;;;;;;4979777;28;20224;-81
2023/04/20 14:03:51;;;;;;;9.00;8.10;;;;;;;;;;4976675;28;20347;-81
2023/04/20 14:06:20;;;;;;;8.33;7.53;;;;;;;;;;4987049;28;20217;-80
2023/04/20 14:08:46;;;;;;;8.63;7.83;;;;;;;;;;4959178;28;20225;-79
2023/04/20 14:11:13;;;;;;;9.10;8.20;;;;;;;;;;4975209;28;20262;-82
2023/04/20 14:13:40;;;;;;;14.40;13.03;;;;;;;;;;4990540;28;20234;-81
2023/04/20 14:16:11;;;;;;;13.00;11.80;;;;;;;;;;4987675;28;20291;-80
2023/04/20 14:18:36;;;;;;;15.70;14.13;;;;;;;;;;4973722;28;20216;-80
2023/04/20 14:21:02;;;;;;;11.00;9.90;;;;;;;;;;4987755;28;20311;-81
2023/04/20 14:23:30;;;;;;;9.33;8.43;;;;;;;;;;4990761;28;20243;-80
2023/04/20 14:25:55;;;;;;;8.80;7.90;;;;;;;;;;4971238;28;20227;-80
2023/04/20 14:28:24;;;;;;;9.97;9.07;;;;;;;;;;4971692;28;20208;-81
2023/04/20 14:30:52;;;;;;;9.43;8.10;;;;;;;;;;4957708;28;20248;-81
2023/04/20 14:33:18;;;;;;;9.63;8.20;;;;;;;;;;4975314;28;20714;-80
2023/04/20 14:35:48;;;;;;;8.77;7.87;;;;;;;;;;4979020;28;20247;-80
2023/04/20 14:38:17;;;;;;;9.30;8.50;;;;;;;;;;4995087;28;20224;-79
2023/04/20 14:40:42;;;;;;;10.27;9.27;;;;;;;;;;4995022;28;20215;-79
2023/04/20 14:43:08;;;;;;;9.73;8.30;;;;;;;;;;4994622;28;20233;-77